Time,TemperatureF,DewpointF,PressureIn,WindDirection,WindDirectionDegrees,WindSpeedMPH,WindSpeedGustMPH,Humidity,HourlyPrecipIn,Conditions,Clouds,dailyrainin,SoftwareType,DateUTC
2013-04-10 00:21:00,3.6,-2.0,30.15,SW,220,0.0,-999.0,78,-99.99,,,0.00,weatherlink.com 1.10,2013-04-10 06:21:00,
2013-04-10 00:36:00,2.8,-3.0,30.16,SW,220,0.0,-999.0,78,-99.99,,,0.00,weatherlink.com 1.10,2013-04-10 06:36:00,
2013-04-10 00:51:00,2.2,-3.0,30.15,SW,220,0.0,-999.0,78,-99.99,,,0.00,weatherlink.com 1.10,2013-04-10 06:51:00,
2013-04-10 01:21:00,1.2,-4.0,30.15,SW,220,0.0,-999.0,78,-99.99,,,0.00,weatherlink.com 1.10,2013-04-10 07:21:00,
2013-04-10 01:35:00,0.8,-5.0,30.15,SW,220,0.0,-999.0,78,-99.99,,,0.00,weatherlink.com 1.10,2013-04-10 07:35:00,
2013-04-10 01:50:00,0.4,-5.0,30.16,SW,220,0.0,-999.0,78,-99.99,,,0.00,weatherlink.com 1.10,2013-04-10 07:50:00,
2013-04-10 02:05:00,0.3,-5.0,30.17,SW,220,0.0,-999.0,79,-99.99,,,0.00,weatherlink.com 1.10,2013-04-10 08:05:00,
2013-04-10 02:20:00,0.3,-5.0,30.18,SW,220,0.0,-999.0,79,-99.99,,,0.00,weatherlink.com 1.10,2013-04-10 08:20:00,
2013-04-10 02:35:00,0.6,-4.0,30.17,SW,220,0.0,-999.0,81,-99.99,,,0.00,weatherlink.com 1.10,2013-04-10 08:35:00,
2013-04-10 02:50:00,1.5,-3.0,30.17,SW,220,0.0,-999.0,83,-99.99,,,0.00,weatherlink.com 1.10,2013-04-10 08:50:00,
2013-04-10 03:05:00,2.2,-2.0,30.18,SW,220,0.0,-999.0,82,-99.99,,,0.00,weatherlink.com 1.10,2013-04-10 09:05:00,
2013-04-10 03:20:00,2.3,-3.0,30.18,SW,220,0.0,-999.0,80,-99.99,,,0.00,weatherlink.com 1.10,2013-04-10 09:20:00,
2013-04-10 03:35:00,2.2,-2.0,30.18,SW,220,0.0,-999.0,81,-99.99,,,0.00,weatherlink.com 1.10,2013-04-10 09:35:00,
2013-04-10 03:50:00,3.1,-1.0,30.19,SW,220,0.0,-999.0,83,-99.99,,,0.00,weatherlink.com 1.10,2013-04-10 09:50:00,
2013-04-10 04:05:00,4.5,0.0,30.20,North,355,0.0,-999.0,82,-99.99,,,0.00,weatherlink.com 1.10,2013-04-10 10:05:00,
2013-04-10 04:20:00,5.3,0.0,30.21,SW,219,0.0,-999.0,80,-99.99,,,0.00,weatherlink.com 1.10,2013-04-10 10:20:00,
2013-04-10 04:35:00,5.6,0.0,30.21,South,184,1.0,-999.0,78,-99.99,,,0.00,weatherlink.com 1.10,2013-04-10 10:35:00,
2013-04-10 04:50:00,5.8,0.0,30.22,SE,126,1.0,-999.0,78,-99.99,,,0.00,weatherlink.com 1.10,2013-04-10 10:50:00,
2013-04-10 05:05:00,6.3,1.0,30.23,NW,306,0.0,-999.0,78,-99.99,,,0.00,weatherlink.com 1.10,2013-04-10 11:05:00,
2013-04-10 05:20:00,6.7,1.0,30.24,NW,307,0.0,-999.0,78,-99.99,,,0.00,weatherlink.com 1.10,2013-04-10 11:20:00,
2013-04-10 05:35:00,6.5,1.0,30.26,NW,307,0.0,-999.0,76,-99.99,,,0.00,weatherlink.com 1.10,2013-04-10 11:35:00,
2013-04-10 05:50:00,3.6,-3.0,30.26,WNW,299,0.0,-999.0,73,-99.99,,,0.00,weatherlink.com 1.10,2013-04-10 11:50:00,
2013-04-10 06:05:00,1.4,-5.0,30.27,WNW,299,0.0,-999.0,74,-99.99,,,0.00,weatherlink.com 1.10,2013-04-10 12:05:00,
2013-04-10 06:20:00,0.9,-4.0,30.27,WNW,299,0.0,-999.0,80,-99.99,,,0.00,weatherlink.com 1.10,2013-04-10 12:20:00,
2013-04-10 06:35:00,2.5,-2.0,30.28,WNW,299,0.0,-999.0,82,-99.99,,,0.00,weatherlink.com 1.10,2013-04-10 12:35:00,
2013-04-10 06:50:00,3.7,-1.0,30.29,WNW,298,0.0,-999.0,82,-99.99,,,0.00,weatherlink.com 1.10,2013-04-10 12:50:00,
2013-04-10 07:05:00,4.9,0.0,30.29,WNW,298,0.0,-999.0,81,-99.99,,,0.00,weatherlink.com 1.10,2013-04-10 13:05:00,
2013-04-10 07:20:00,6.4,2.0,30.29,WSW,249,1.0,-999.0,81,-99.99,,,0.00,weatherlink.com 1.10,2013-04-10 13:20:00,
2013-04-10 07:36:00,8.3,3.0,30.30,SSW,196,2.0,-999.0,78,-99.99,,,0.00,weatherlink.com 1.10,2013-04-10 13:36:00,
2013-04-10 07:51:00,9.7,3.0,30.30,South,190,0.0,-999.0,74,-99.99,,,0.00,weatherlink.com 1.10,2013-04-10 13:51:00,
2013-04-10 08:06:00,10.0,3.0,30.30,SSW,210,2.0,-999.0,72,-99.99,,,0.00,weatherlink.com 1.10,2013-04-10 14:06:00,
2013-04-10 08:21:00,10.8,4.0,30.31,WNW,301,1.0,-999.0,73,-99.99,,,0.00,weatherlink.com 1.10,2013-04-10 14:21:00,
2013-04-10 08:36:00,11.7,4.0,30.32,SSW,208,1.0,-999.0,71,-99.99,,,0.00,weatherlink.com 1.10,2013-04-10 14:36:00,
2013-04-10 08:51:00,13.4,5.0,30.32,South,175,3.0,-999.0,69,-99.99,,,0.00,weatherlink.com 1.10,2013-04-10 14:51:00,
2013-04-10 09:06:00,13.7,6.0,30.32,West,260,0.0,-999.0,72,-99.99,,,0.00,weatherlink.com 1.10,2013-04-10 15:06:00,
2013-04-10 09:21:00,14.3,6.0,30.32,SW,226,4.0,-999.0,68,-99.99,,,0.00,weatherlink.com 1.10,2013-04-10 15:21:00,
2013-04-10 09:36:00,14.3,5.0,30.33,South,184,1.0,-999.0,66,-99.99,,,0.00,weatherlink.com 1.10,2013-04-10 15:36:00,
2013-04-10 09:51:00,15.9,7.0,30.33,SSW,195,1.0,-999.0,68,-99.99,,,0.00,weatherlink.com 1.10,2013-04-10 15:51:00,
2013-04-10 10:06:00,17.6,8.0,30.33,WSW,246,5.0,-999.0,67,-99.99,,,0.00,weatherlink.com 1.10,2013-04-10 16:06:00,
2013-04-10 10:21:00,18.9,9.0,30.33,South,186,2.0,-999.0,65,-99.99,,,0.00,weatherlink.com 1.10,2013-04-10 16:21:00,
2013-04-10 10:36:00,19.0,9.0,30.32,West,268,2.0,-999.0,65,-99.99,,,0.00,weatherlink.com 1.10,2013-04-10 16:36:00,
2013-04-10 10:51:00,19.8,9.0,30.32,SSW,199,4.0,-999.0,63,-99.99,,,0.00,weatherlink.com 1.10,2013-04-10 16:51:00,
2013-04-10 11:06:00,20.8,10.0,30.32,SSW,205,0.0,-999.0,62,-99.99,,,0.00,weatherlink.com 1.10,2013-04-10 17:06:00,
2013-04-10 11:21:00,22.2,11.0,30.32,SSW,193,2.0,-999.0,62,-99.99,,,0.00,weatherlink.com 1.10,2013-04-10 17:21:00,
2013-04-10 11:35:00,22.5,10.0,30.32,SW,219,2.0,-999.0,58,-99.99,,,0.00,weatherlink.com 1.10,2013-04-10 17:35:00,
2013-04-10 11:50:00,23.7,11.0,30.31,SSW,213,0.0,-999.0,59,-99.99,,,0.00,weatherlink.com 1.10,2013-04-10 17:50:00,
2013-04-10 12:05:00,24.4,11.0,30.30,SSW,207,2.0,-999.0,57,-99.99,,,0.00,weatherlink.com 1.10,2013-04-10 18:05:00,
2013-04-10 12:20:00,24.8,11.0,30.29,SSW,192,0.0,-999.0,56,-99.99,,,0.00,weatherlink.com 1.10,2013-04-10 18:20:00,
2013-04-10 12:35:00,23.9,11.0,30.29,WSW,252,2.0,-999.0,58,-99.99,,,0.00,weatherlink.com 1.10,2013-04-10 18:35:00,
2013-04-10 12:50:00,23.9,11.0,30.29,SE,136,1.0,-999.0,57,-99.99,,,0.00,weatherlink.com 1.10,2013-04-10 18:50:00,
2013-04-10 13:05:00,23.6,10.0,30.29,East,96,1.0,-999.0,56,-99.99,,,0.00,weatherlink.com 1.10,2013-04-10 19:05:00,
2013-04-10 13:20:00,23.1,10.0,30.27,ENE,67,1.0,-999.0,58,-99.99,,,0.00,weatherlink.com 1.10,2013-04-10 19:20:00,
2013-04-10 13:50:00,25.9,12.0,30.27,WSW,242,3.0,-999.0,56,-99.99,,,0.00,weatherlink.com 1.10,2013-04-10 19:50:00,
2013-04-10 14:05:00,26.9,13.0,30.24,ESE,107,3.0,-999.0,55,-99.99,,,0.00,weatherlink.com 1.10,2013-04-10 20:05:00,
2013-04-10 14:20:00,27.3,13.0,30.23,West,279,2.0,-999.0,54,-99.99,,,0.00,weatherlink.com 1.10,2013-04-10 20:20:00,
2013-04-10 14:35:00,27.0,11.0,30.23,East,90,2.0,-999.0,52,-99.99,,,0.00,weatherlink.com 1.10,2013-04-10 20:35:00,
2013-04-10 14:50:00,27.0,13.0,30.22,East,85,4.0,-999.0,55,-99.99,,,0.00,weatherlink.com 1.10,2013-04-10 20:50:00,
2013-04-10 15:05:00,26.5,12.0,30.20,ESE,112,5.0,-999.0,54,-99.99,,,0.00,weatherlink.com 1.10,2013-04-10 21:05:00,
2013-04-10 15:20:00,26.0,11.0,30.20,SE,146,4.0,-999.0,53,-99.99,,,0.00,weatherlink.com 1.10,2013-04-10 21:20:00,
2013-04-10 15:36:00,23.8,10.0,30.19,ESE,117,5.0,-999.0,57,-99.99,,,0.00,weatherlink.com 1.10,2013-04-10 21:36:00,
2013-04-10 15:50:00,23.1,9.0,30.20,NW,304,4.0,-999.0,56,-99.99,,,0.00,weatherlink.com 1.10,2013-04-10 21:50:00,
2013-04-10 16:05:00,23.4,10.0,30.18,NE,56,6.0,-999.0,56,-99.99,,,0.00,weatherlink.com 1.10,2013-04-10 22:05:00,
2013-04-10 16:20:00,23.9,11.0,30.18,ESE,123,5.0,-999.0,57,-99.99,,,0.00,weatherlink.com 1.10,2013-04-10 22:20:00,
2013-04-10 16:35:00,24.7,11.0,30.18,SE,145,5.0,-999.0,56,-99.99,,,0.00,weatherlink.com 1.10,2013-04-10 22:35:00,
2013-04-10 16:50:00,24.2,10.0,30.20,South,182,4.0,-999.0,54,-99.99,,,0.00,weatherlink.com 1.10,2013-04-10 22:50:00,
2013-04-10 17:05:00,23.5,9.0,30.20,ESE,115,4.0,-999.0,54,-99.99,,,0.00,weatherlink.com 1.10,2013-04-10 23:05:00,
2013-04-10 17:20:00,22.3,9.0,30.20,East,79,3.0,-999.0,56,-99.99,,,0.00,weatherlink.com 1.10,2013-04-10 23:20:00,
2013-04-10 17:35:00,21.3,7.0,30.20,WNW,298,2.0,-999.0,55,-99.99,,,0.00,weatherlink.com 1.10,2013-04-10 23:35:00,
2013-04-10 17:51:00,20.7,7.0,30.20,ESE,113,1.0,-999.0,55,-99.99,,,0.00,weatherlink.com 1.10,2013-04-10 23:51:00,
2013-04-10 18:06:00,20.0,7.0,30.20,NE,52,4.0,-999.0,58,-99.99,,,0.00,weatherlink.com 1.10,2013-04-11 00:06:00,
2013-04-10 18:21:00,19.0,7.0,30.21,East,94,5.0,-999.0,60,-99.99,,,0.00,weatherlink.com 1.10,2013-04-11 00:21:00,
2013-04-10 18:36:00,18.4,7.0,30.22,ESE,111,4.0,-999.0,60,-99.99,,,0.00,weatherlink.com 1.10,2013-04-11 00:36:00,
2013-04-10 18:51:00,18.0,7.0,30.22,South,181,1.0,-999.0,61,-99.99,,,0.00,weatherlink.com 1.10,2013-04-11 00:51:00,
2013-04-10 19:06:00,17.7,6.0,30.22,ESE,117,2.0,-999.0,60,-99.99,,,0.00,weatherlink.com 1.10,2013-04-11 01:06:00,
2013-04-10 19:21:00,17.6,5.0,30.23,ESE,116,4.0,-999.0,58,-99.99,,,0.00,weatherlink.com 1.10,2013-04-11 01:21:00,
2013-04-10 19:36:00,17.3,5.0,30.23,South,177,1.0,-999.0,60,-99.99,,,0.00,weatherlink.com 1.10,2013-04-11 01:36:00,
2013-04-10 19:51:00,16.8,6.0,30.22,SSE,156,4.0,-999.0,62,-99.99,,,0.00,weatherlink.com 1.10,2013-04-11 01:51:00,
2013-04-10 20:06:00,16.4,6.0,30.23,ESE,105,4.0,-999.0,63,-99.99,,,0.00,weatherlink.com 1.10,2013-04-11 02:06:00,
2013-04-10 20:21:00,16.2,6.0,30.25,SSE,148,4.0,-999.0,63,-99.99,,,0.00,weatherlink.com 1.10,2013-04-11 02:21:00,
2013-04-10 20:36:00,16.0,5.0,30.25,West,262,1.0,-999.0,63,-99.99,,,0.00,weatherlink.com 1.10,2013-04-11 02:36:00,
2013-04-10 20:51:00,15.6,5.0,30.25,SW,229,2.0,-999.0,64,-99.99,,,0.00,weatherlink.com 1.10,2013-04-11 02:51:00,
2013-04-10 21:06:00,15.2,5.0,30.25,ENE,63,1.0,-999.0,63,-99.99,,,0.00,weatherlink.com 1.10,2013-04-11 03:06:00,
2013-04-10 21:21:00,15.0,4.0,30.26,ESE,115,0.0,-999.0,62,-99.99,,,0.00,weatherlink.com 1.10,2013-04-11 03:21:00,
2013-04-10 21:36:00,14.8,4.0,30.26,East,87,3.0,-999.0,62,-99.99,,,0.00,weatherlink.com 1.10,2013-04-11 03:36:00,
2013-04-10 21:51:00,14.4,3.0,30.26,SE,139,2.0,-999.0,61,-99.99,,,0.00,weatherlink.com 1.10,2013-04-11 03:51:00,
2013-04-10 22:06:00,14.0,2.0,30.27,NE,39,2.0,-999.0,60,-99.99,,,0.00,weatherlink.com 1.10,2013-04-11 04:06:00,
2013-04-10 22:21:00,13.7,2.0,30.26,SSW,195,2.0,-999.0,60,-99.99,,,0.00,weatherlink.com 1.10,2013-04-11 04:21:00,
2013-04-10 22:51:00,13.6,1.0,30.24,ENE,63,5.0,-999.0,58,-99.99,,,0.00,weatherlink.com 1.10,2013-04-11 04:51:00,
2013-04-10 23:06:00,14.3,2.0,30.22,SW,235,5.0,-999.0,58,-99.99,,,0.00,weatherlink.com 1.10,2013-04-11 05:06:00,
2013-04-10 23:36:00,15.8,5.0,30.21,ENE,69,7.0,-999.0,63,-99.99,,,0.00,weatherlink.com 1.10,2013-04-11 05:36:00,
2013-04-10 23:51:00,16.0,5.0,30.20,SSE,147,1.0,-999.0,61,-99.99,,,0.00,weatherlink.com 1.10,2013-04-11 05:51:00,